sensor_id;sensor_type;location;lat;lon;timestamp;P1;durP1;ratioP1;P2;durP2;ratioP2
58071;SDS011;60383;46.626;18.866;2023-04-07T00:02:24;22.15;;;16.90;;
58071;SDS011;60383;46.626;18.866;2023-04-07T00:04:51;21.80;;;16.15;;
58071;SDS011;60383;46.626;18.866;2023-04-07T00:07:16;22.38;;;15.70;;
58071;SDS011;60383;46.626;18.866;2023-04-07T00:09:42;20.08;;;15.98;;
58071;SDS011;60383;46.626;18.866;2023-04-07T00:12:07;20.65;;;15.73;;
58071;SDS011;60383;46.626;18.866;2023-04-07T00:14:33;20.77;;;16.08;;
58071;SDS011;60383;46.626;18.866;2023-04-07T00:16:58;19.85;;;15.38;;
58071;SDS011;60383;46.626;18.866;2023-04-07T00:19:23;21.30;;;15.88;;
58071;SDS011;60383;46.626;18.866;2023-04-07T00:21:49;20.42;;;15.57;;
58071;SDS011;60383;46.626;18.866;2023-04-07T00:24:14;23.73;;;16.20;;
58071;SDS011;60383;46.626;18.866;2023-04-07T00:26:41;18.92;;;15.02;;
58071;SDS011;60383;46.626;18.866;2023-04-07T00:29:06;21.15;;;16.23;;
58071;SDS011;60383;46.626;18.866;2023-04-07T00:31:32;23.73;;;16.45;;
58071;SDS011;60383;46.626;18.866;2023-04-07T00:33:57;22.02;;;17.25;;
58071;SDS011;60383;46.626;18.866;2023-04-07T00:36:23;22.30;;;16.30;;
58071;SDS011;60383;46.626;18.866;2023-04-07T00:38:48;22.63;;;16.83;;
58071;SDS011;60383;46.626;18.866;2023-04-07T00:41:13;23.35;;;16.40;;
58071;SDS011;60383;46.626;18.866;2023-04-07T00:43:39;21.17;;;16.15;;
58071;SDS011;60383;46.626;18.866;2023-04-07T00:46:05;20.63;;;16.38;;
58071;SDS011;60383;46.626;18.866;2023-04-07T00:48:31;20.30;;;15.73;;
58071;SDS011;60383;46.626;18.866;2023-04-07T00:50:56;19.00;;;15.18;;
58071;SDS011;60383;46.626;18.866;2023-04-07T00:53:22;21.02;;;16.40;;
58071;SDS011;60383;46.626;18.866;2023-04-07T00:55:48;20.65;;;16.15;;
58071;SDS011;60383;46.626;18.866;2023-04-07T00:58:13;21.30;;;16.35;;
58071;SDS011;60383;46.626;18.866;2023-04-07T01:00:50;24.48;;;17.20;;
58071;SDS011;60383;46.626;18.866;2023-04-07T01:03:36;20.63;;;16.10;;
58071;SDS011;60383;46.626;18.866;2023-04-07T01:06:16;21.02;;;15.80;;
58071;SDS011;60383;46.626;18.866;2023-04-07T01:14:40;23.45;;;17.00;;
58071;SDS011;60383;46.626;18.866;2023-04-07T01:17:11;21.35;;;16.50;;
58071;SDS011;60383;46.626;18.866;2023-04-07T01:19:40;22.42;;;16.52;;
58071;SDS011;60383;46.626;18.866;2023-04-07T01:22:12;22.77;;;17.05;;
58071;SDS011;60383;46.626;18.866;2023-04-07T01:24:45;26.83;;;17.43;;
58071;SDS011;60383;46.626;18.866;2023-04-07T01:30:26;22.17;;;15.90;;
58071;SDS011;60383;46.626;18.866;2023-04-07T01:32:54;21.73;;;16.33;;
58071;SDS011;60383;46.626;18.866;2023-04-07T01:35:21;23.17;;;16.35;;
58071;SDS011;60383;46.626;18.866;2023-04-07T01:37:48;23.13;;;16.52;;
58071;SDS011;60383;46.626;18.866;2023-04-07T01:40:14;23.75;;;16.88;;
58071;SDS011;60383;46.626;18.866;2023-04-07T01:42:41;22.95;;;15.95;;
58071;SDS011;60383;46.626;18.866;2023-04-07T01:45:10;22.90;;;16.10;;
58071;SDS011;60383;46.626;18.866;2023-04-07T01:47:35;20.67;;;15.85;;
58071;SDS011;60383;46.626;18.866;2023-04-07T01:50:02;20.95;;;14.88;;
58071;SDS011;60383;46.626;18.866;2023-04-07T01:52:29;22.42;;;14.90;;
58071;SDS011;60383;46.626;18.866;2023-04-07T01:54:56;22.35;;;16.17;;
58071;SDS011;60383;46.626;18.866;2023-04-07T01:57:22;20.58;;;16.23;;
58071;SDS011;60383;46.626;18.866;2023-04-07T01:59:47;20.73;;;15.18;;
58071;SDS011;60383;46.626;18.866;2023-04-07T02:02:13;21.08;;;15.27;;
58071;SDS011;60383;46.626;18.866;2023-04-07T02:04:52;21.17;;;16.08;;
58071;SDS011;60383;46.626;18.866;2023-04-07T02:09:55;21.13;;;15.80;;
58071;SDS011;60383;46.626;18.866;2023-04-07T02:12:22;22.27;;;16.08;;
58071;SDS011;60383;46.626;18.866;2023-04-07T02:14:52;21.23;;;15.75;;
58071;SDS011;60383;46.626;18.866;2023-04-07T02:17:19;21.40;;;15.63;;
58071;SDS011;60383;46.626;18.866;2023-04-07T02:19:47;20.33;;;16.20;;
58071;SDS011;60383;46.626;18.866;2023-04-07T02:22:14;21.27;;;16.08;;
58071;SDS011;60383;46.626;18.866;2023-04-07T02:24:41;20.50;;;15.30;;
58071;SDS011;60383;46.626;18.866;2023-04-07T02:27:09;21.75;;;15.27;;
58071;SDS011;60383;46.626;18.866;2023-04-07T02:29:35;19.55;;;15.40;;
58071;SDS011;60383;46.626;18.866;2023-04-07T02:32:00;20.77;;;15.70;;
58071;SDS011;60383;46.626;18.866;2023-04-07T02:34:26;21.95;;;15.73;;
58071;SDS011;60383;46.626;18.866;2023-04-07T02:36:51;22.67;;;15.93;;
58071;SDS011;60383;46.626;18.866;2023-04-07T02:39:17;20.08;;;15.05;;
58071;SDS011;60383;46.626;18.866;2023-04-07T02:41:42;20.92;;;15.70;;
58071;SDS011;60383;46.626;18.866;2023-04-07T02:44:08;19.98;;;15.57;;
58071;SDS011;60383;46.626;18.866;2023-04-07T02:46:33;21.85;;;15.45;;
58071;SDS011;60383;46.626;18.866;2023-04-07T02:48:59;22.48;;;16.10;;
58071;SDS011;60383;46.626;18.866;2023-04-07T02:51:24;19.35;;;15.05;;
58071;SDS011;60383;46.626;18.866;2023-04-07T02:53:51;22.20;;;16.17;;
58071;SDS011;60383;46.626;18.866;2023-04-07T02:56:16;21.77;;;15.30;;
58071;SDS011;60383;46.626;18.866;2023-04-07T02:58:42;19.65;;;15.27;;
58071;SDS011;60383;46.626;18.866;2023-04-07T03:01:07;19.08;;;15.15;;
58071;SDS011;60383;46.626;18.866;2023-04-07T03:03:33;19.35;;;15.05;;
58071;SDS011;60383;46.626;18.866;2023-04-07T03:05:58;19.48;;;15.18;;
58071;SDS011;60383;46.626;18.866;2023-04-07T03:08:24;19.67;;;14.90;;
58071;SDS011;60383;46.626;18.866;2023-04-07T03:10:49;20.05;;;15.93;;
58071;SDS011;60383;46.626;18.866;2023-04-07T03:13:15;22.30;;;15.02;;
58071;SDS011;60383;46.626;18.866;2023-04-07T03:15:43;21.55;;;17.05;;
58071;SDS011;60383;46.626;18.866;2023-04-07T03:18:08;22.23;;;15.82;;
58071;SDS011;60383;46.626;18.866;2023-04-07T03:20:35;22.75;;;16.92;;
58071;SDS011;60383;46.626;18.866;2023-04-07T03:23:01;23.45;;;17.25;;
58071;SDS011;60383;46.626;18.866;2023-04-07T03:25:27;22.60;;;15.82;;
58071;SDS011;60383;46.626;18.866;2023-04-07T03:27:53;25.20;;;17.77;;
58071;SDS011;60383;46.626;18.866;2023-04-07T03:30:18;24.02;;;17.20;;
58071;SDS011;60383;46.626;18.866;2023-04-07T03:32:44;25.55;;;18.30;;
58071;SDS011;60383;46.626;18.866;2023-04-07T03:35:10;23.23;;;17.67;;
58071;SDS011;60383;46.626;18.866;2023-04-07T03:37:35;21.88;;;16.20;;
58071;SDS011;60383;46.626;18.866;2023-04-07T03:40:01;20.88;;;15.75;;
58071;SDS011;60383;46.626;18.866;2023-04-07T03:42:26;22.42;;;16.25;;
58071;SDS011;60383;46.626;18.866;2023-04-07T03:44:52;22.50;;;15.88;;
58071;SDS011;60383;46.626;18.866;2023-04-07T03:47:17;20.02;;;15.60;;
58071;SDS011;60383;46.626;18.866;2023-04-07T03:49:43;20.80;;;16.02;;
58071;SDS011;60383;46.626;18.866;2023-04-07T03:52:08;20.38;;;16.38;;
58071;SDS011;60383;46.626;18.866;2023-04-07T03:54:34;23.10;;;16.45;;
58071;SDS011;60383;46.626;18.866;2023-04-07T03:57:00;21.65;;;15.82;;
58071;SDS011;60383;46.626;18.866;2023-04-07T03:59:26;21.25;;;16.05;;
58071;SDS011;60383;46.626;18.866;2023-04-07T04:01:52;24.25;;;16.02;;
58071;SDS011;60383;46.626;18.866;2023-04-07T04:04:17;21.85;;;16.17;;
58071;SDS011;60383;46.626;18.866;2023-04-07T04:06:43;21.95;;;16.25;;
58071;SDS011;60383;46.626;18.866;2023-04-07T04:09:08;22.85;;;16.90;;
58071;SDS011;60383;46.626;18.866;2023-04-07T04:11:34;21.90;;;16.70;;
58071;SDS011;60383;46.626;18.866;2023-04-07T04:14:00;23.40;;;16.15;;
58071;SDS011;60383;46.626;18.866;2023-04-07T04:16:26;22.30;;;16.50;;
58071;SDS011;60383;46.626;18.866;2023-04-07T04:18:51;22.20;;;16.67;;
58071;SDS011;60383;46.626;18.866;2023-04-07T04:21:17;24.75;;;17.40;;
58071;SDS011;60383;46.626;18.866;2023-04-07T04:23:42;22.30;;;16.92;;
58071;SDS011;60383;46.626;18.866;2023-04-07T04:26:08;22.35;;;16.10;;
58071;SDS011;60383;46.626;18.866;2023-04-07T04:28:33;31.98;;;25.58;;
58071;SDS011;60383;46.626;18.866;2023-04-07T04:30:59;22.58;;;17.67;;
58071;SDS011;60383;46.626;18.866;2023-04-07T04:33:24;25.10;;;16.95;;
58071;SDS011;60383;46.626;18.866;2023-04-07T04:35:50;21.88;;;16.13;;
58071;SDS011;60383;46.626;18.866;2023-04-07T04:38:15;24.83;;;17.45;;
58071;SDS011;60383;46.626;18.866;2023-04-07T04:40:41;25.75;;;17.80;;
58071;SDS011;60383;46.626;18.866;2023-04-07T04:43:06;24.23;;;17.85;;
58071;SDS011;60383;46.626;18.866;2023-04-07T04:45:33;24.60;;;17.95;;
58071;SDS011;60383;46.626;18.866;2023-04-07T04:47:59;25.50;;;17.30;;
58071;SDS011;60383;46.626;18.866;2023-04-07T04:50:25;24.60;;;17.90;;
58071;SDS011;60383;46.626;18.866;2023-04-07T04:52:50;24.02;;;17.65;;
58071;SDS011;60383;46.626;18.866;2023-04-07T04:55:16;25.92;;;18.38;;
58071;SDS011;60383;46.626;18.866;2023-04-07T04:57:41;25.45;;;18.92;;
58071;SDS011;60383;46.626;18.866;2023-04-07T05:00:07;25.73;;;18.38;;
58071;SDS011;60383;46.626;18.866;2023-04-07T05:02:34;24.73;;;18.75;;
58071;SDS011;60383;46.626;18.866;2023-04-07T05:05:00;24.33;;;17.15;;
58071;SDS011;60383;46.626;18.866;2023-04-07T05:07:25;25.85;;;19.05;;
58071;SDS011;60383;46.626;18.866;2023-04-07T05:09:51;27.10;;;19.00;;
58071;SDS011;60383;46.626;18.866;2023-04-07T05:12:16;27.23;;;18.90;;
58071;SDS011;60383;46.626;18.866;2023-04-07T05:14:42;25.95;;;18.55;;
58071;SDS011;60383;46.626;18.866;2023-04-07T05:17:07;27.30;;;19.48;;
58071;SDS011;60383;46.626;18.866;2023-04-07T05:19:33;24.52;;;18.77;;
58071;SDS011;60383;46.626;18.866;2023-04-07T05:21:59;26.13;;;18.40;;
58071;SDS011;60383;46.626;18.866;2023-04-07T05:24:25;28.13;;;18.90;;
58071;SDS011;60383;46.626;18.866;2023-04-07T05:26:52;27.13;;;18.75;;
58071;SDS011;60383;46.626;18.866;2023-04-07T05:29:18;26.63;;;19.02;;
58071;SDS011;60383;46.626;18.866;2023-04-07T05:31:43;25.35;;;18.02;;
58071;SDS011;60383;46.626;18.866;2023-04-07T05:34:09;24.98;;;18.15;;
58071;SDS011;60383;46.626;18.866;2023-04-07T05:36:34;26.65;;;18.52;;
58071;SDS011;60383;46.626;18.866;2023-04-07T05:39:00;25.52;;;17.60;;
58071;SDS011;60383;46.626;18.866;2023-04-07T05:41:25;25.95;;;17.88;;
58071;SDS011;60383;46.626;18.866;2023-04-07T05:43:51;26.02;;;19.10;;
58071;SDS011;60383;46.626;18.866;2023-04-07T05:46:16;28.38;;;19.80;;
58071;SDS011;60383;46.626;18.866;2023-04-07T05:48:42;26.90;;;18.63;;
58071;SDS011;60383;46.626;18.866;2023-04-07T05:51:07;25.63;;;16.90;;
58071;SDS011;60383;46.626;18.866;2023-04-07T05:53:33;22.50;;;16.40;;
58071;SDS011;60383;46.626;18.866;2023-04-07T05:55:58;23.73;;;17.13;;
58071;SDS011;60383;46.626;18.866;2023-04-07T05:58:24;25.50;;;17.20;;
58071;SDS011;60383;46.626;18.866;2023-04-07T06:00:50;26.52;;;17.38;;
58071;SDS011;60383;46.626;18.866;2023-04-07T06:03:15;22.67;;;15.93;;
58071;SDS011;60383;46.626;18.866;2023-04-07T06:05:41;24.63;;;17.83;;
58071;SDS011;60383;46.626;18.866;2023-04-07T06:08:10;23.38;;;17.42;;
58071;SDS011;60383;46.626;18.866;2023-04-07T06:10:35;23.67;;;17.30;;
58071;SDS011;60383;46.626;18.866;2023-04-07T06:13:01;23.95;;;17.70;;
58071;SDS011;60383;46.626;18.866;2023-04-07T06:15:26;22.75;;;16.52;;
58071;SDS011;60383;46.626;18.866;2023-04-07T06:17:52;24.05;;;17.80;;
58071;SDS011;60383;46.626;18.866;2023-04-07T06:20:17;21.27;;;16.58;;
58071;SDS011;60383;46.626;18.866;2023-04-07T06:22:45;24.83;;;17.40;;
58071;SDS011;60383;46.626;18.866;2023-04-07T06:25:11;26.55;;;17.88;;
58071;SDS011;60383;46.626;18.866;2023-04-07T06:27:37;28.60;;;19.35;;
58071;SDS011;60383;46.626;18.866;2023-04-07T06:30:02;26.42;;;18.23;;
58071;SDS011;60383;46.626;18.866;2023-04-07T06:32:28;24.90;;;18.33;;
58071;SDS011;60383;46.626;18.866;2023-04-07T06:34:54;24.45;;;17.63;;
58071;SDS011;60383;46.626;18.866;2023-04-07T06:37:20;25.35;;;17.33;;
58071;SDS011;60383;46.626;18.866;2023-04-07T06:39:48;26.80;;;17.75;;
58071;SDS011;60383;46.626;18.866;2023-04-07T06:42:14;26.83;;;18.38;;
58071;SDS011;60383;46.626;18.866;2023-04-07T06:44:39;26.60;;;18.08;;
58071;SDS011;60383;46.626;18.866;2023-04-07T06:47:05;25.95;;;17.55;;
58071;SDS011;60383;46.626;18.866;2023-04-07T06:49:30;24.75;;;17.92;;
58071;SDS011;60383;46.626;18.866;2023-04-07T06:51:56;27.58;;;18.85;;
58071;SDS011;60383;46.626;18.866;2023-04-07T06:54:21;26.55;;;17.13;;
58071;SDS011;60383;46.626;18.866;2023-04-07T06:56:47;27.88;;;18.77;;
58071;SDS011;60383;46.626;18.866;2023-04-07T06:59:12;27.52;;;18.77;;
58071;SDS011;60383;46.626;18.866;2023-04-07T07:01:39;29.70;;;19.02;;
58071;SDS011;60383;46.626;18.866;2023-04-07T07:04:06;28.33;;;18.85;;
58071;SDS011;60383;46.626;18.866;2023-04-07T07:06:31;27.48;;;18.50;;
58071;SDS011;60383;46.626;18.866;2023-04-07T07:08:57;29.95;;;22.13;;
58071;SDS011;60383;46.626;18.866;2023-04-07T07:11:24;24.65;;;15.85;;
58071;SDS011;60383;46.626;18.866;2023-04-07T07:13:49;26.70;;;18.90;;
58071;SDS011;60383;46.626;18.866;2023-04-07T07:16:15;32.38;;;20.00;;
58071;SDS011;60383;46.626;18.866;2023-04-07T07:18:40;26.17;;;18.55;;
58071;SDS011;60383;46.626;18.866;2023-04-07T07:21:07;23.65;;;16.95;;
58071;SDS011;60383;46.626;18.866;2023-04-07T07:23:32;24.70;;;16.50;;
58071;SDS011;60383;46.626;18.866;2023-04-07T07:25:58;27.02;;;18.75;;
58071;SDS011;60383;46.626;18.866;2023-04-07T07:28:24;25.15;;;17.67;;
58071;SDS011;60383;46.626;18.866;2023-04-07T07:30:50;23.92;;;17.35;;
58071;SDS011;60383;46.626;18.866;2023-04-07T07:33:15;26.25;;;18.55;;
58071;SDS011;60383;46.626;18.866;2023-04-07T07:35:41;25.23;;;16.83;;
58071;SDS011;60383;46.626;18.866;2023-04-07T07:38:06;27.17;;;18.15;;
58071;SDS011;60383;46.626;18.866;2023-04-07T07:40:32;25.33;;;17.50;;
58071;SDS011;60383;46.626;18.866;2023-04-07T07:42:58;25.38;;;18.48;;
58071;SDS011;60383;46.626;18.866;2023-04-07T07:45:24;26.10;;;18.20;;
58071;SDS011;60383;46.626;18.866;2023-04-07T07:47:50;25.13;;;17.70;;
58071;SDS011;60383;46.626;18.866;2023-04-07T07:50:16;22.77;;;15.23;;
58071;SDS011;60383;46.626;18.866;2023-04-07T07:52:41;24.98;;;18.23;;
58071;SDS011;60383;46.626;18.866;2023-04-07T07:55:07;25.85;;;18.23;;
58071;SDS011;60383;46.626;18.866;2023-04-07T07:57:33;25.02;;;18.05;;
58071;SDS011;60383;46.626;18.866;2023-04-07T07:59:58;23.38;;;16.55;;
58071;SDS011;60383;46.626;18.866;2023-04-07T08:02:24;26.10;;;18.65;;
58071;SDS011;60383;46.626;18.866;2023-04-07T08:04:55;25.38;;;18.88;;
58071;SDS011;60383;46.626;18.866;2023-04-07T08:07:21;27.90;;;18.80;;
58071;SDS011;60383;46.626;18.866;2023-04-07T08:09:46;26.25;;;18.63;;
58071;SDS011;60383;46.626;18.866;2023-04-07T08:12:12;25.85;;;18.73;;
58071;SDS011;60383;46.626;18.866;2023-04-07T08:14:37;26.65;;;17.75;;
58071;SDS011;60383;46.626;18.866;2023-04-07T08:17:03;22.88;;;16.48;;
58071;SDS011;60383;46.626;18.866;2023-04-07T08:19:29;25.50;;;19.10;;
58071;SDS011;60383;46.626;18.866;2023-04-07T08:21:54;30.17;;;20.25;;
58071;SDS011;60383;46.626;18.866;2023-04-07T08:24:20;25.90;;;18.25;;
58071;SDS011;60383;46.626;18.866;2023-04-07T08:26:45;24.30;;;17.45;;
58071;SDS011;60383;46.626;18.866;2023-04-07T08:29:11;27.63;;;18.90;;
58071;SDS011;60383;46.626;18.866;2023-04-07T08:31:36;26.25;;;17.27;;
58071;SDS011;60383;46.626;18.866;2023-04-07T08:34:01;23.88;;;17.20;;
58071;SDS011;60383;46.626;18.866;2023-04-07T08:36:27;24.02;;;18.23;;
58071;SDS011;60383;46.626;18.866;2023-04-07T08:38:54;24.80;;;17.60;;
58071;SDS011;60383;46.626;18.866;2023-04-07T08:41:38;27.02;;;18.73;;
58071;SDS011;60383;46.626;18.866;2023-04-07T08:44:09;27.60;;;18.67;;
58071;SDS011;60383;46.626;18.866;2023-04-07T08:46:34;25.60;;;18.15;;
58071;SDS011;60383;46.626;18.866;2023-04-07T08:49:03;26.67;;;18.60;;
58071;SDS011;60383;46.626;18.866;2023-04-07T08:51:33;28.70;;;18.83;;
58071;SDS011;60383;46.626;18.866;2023-04-07T08:54:11;26.42;;;19.25;;
58071;SDS011;60383;46.626;18.866;2023-04-07T08:56:39;26.63;;;19.52;;
58071;SDS011;60383;46.626;18.866;2023-04-07T08:59:06;28.02;;;18.98;;
58071;SDS011;60383;46.626;18.866;2023-04-07T09:01:33;27.98;;;19.40;;
58071;SDS011;60383;46.626;18.866;2023-04-07T09:04:00;26.35;;;19.95;;
58071;SDS011;60383;46.626;18.866;2023-04-07T09:06:28;28.17;;;21.45;;
58071;SDS011;60383;46.626;18.866;2023-04-07T09:08:56;34.60;;;22.27;;
58071;SDS011;60383;46.626;18.866;2023-04-07T09:11:33;26.90;;;18.60;;
58071;SDS011;60383;46.626;18.866;2023-04-07T09:14:00;27.60;;;19.83;;
58071;SDS011;60383;46.626;18.866;2023-04-07T09:16:27;30.17;;;21.48;;
58071;SDS011;60383;46.626;18.866;2023-04-07T09:18:54;28.30;;;20.38;;
58071;SDS011;60383;46.626;18.866;2023-04-07T09:21:20;26.73;;;19.45;;
58071;SDS011;60383;46.626;18.866;2023-04-07T09:23:46;29.33;;;21.05;;
58071;SDS011;60383;46.626;18.866;2023-04-07T09:28:51;26.92;;;19.35;;
58071;SDS011;60383;46.626;18.866;2023-04-07T09:31:22;28.00;;;20.80;;
58071;SDS011;60383;46.626;18.866;2023-04-07T09:33:50;29.73;;;21.25;;
58071;SDS011;60383;46.626;18.866;2023-04-07T09:36:16;29.02;;;20.90;;
58071;SDS011;60383;46.626;18.866;2023-04-07T09:38:42;30.27;;;20.95;;
58071;SDS011;60383;46.626;18.866;2023-04-07T09:41:15;29.80;;;20.50;;
58071;SDS011;60383;46.626;18.866;2023-04-07T09:43:42;30.52;;;21.35;;
58071;SDS011;60383;46.626;18.866;2023-04-07T09:46:18;28.88;;;19.88;;
58071;SDS011;60383;46.626;18.866;2023-04-07T09:48:44;28.45;;;20.63;;
58071;SDS011;60383;46.626;18.866;2023-04-07T09:51:14;27.90;;;19.95;;
58071;SDS011;60383;46.626;18.866;2023-04-07T09:56:11;25.58;;;19.63;;
58071;SDS011;60383;46.626;18.866;2023-04-07T09:58:38;28.27;;;20.67;;
58071;SDS011;60383;46.626;18.866;2023-04-07T10:01:08;28.50;;;19.75;;
58071;SDS011;60383;46.626;18.866;2023-04-07T10:03:34;23.83;;;18.50;;
58071;SDS011;60383;46.626;18.866;2023-04-07T10:06:01;28.95;;;20.45;;
58071;SDS011;60383;46.626;18.866;2023-04-07T10:08:27;28.63;;;19.23;;
58071;SDS011;60383;46.626;18.866;2023-04-07T10:10:53;26.58;;;19.10;;
58071;SDS011;60383;46.626;18.866;2023-04-07T10:13:20;26.20;;;18.95;;
58071;SDS011;60383;46.626;18.866;2023-04-07T10:15:46;27.20;;;19.92;;
58071;SDS011;60383;46.626;18.866;2023-04-07T10:18:12;27.42;;;19.83;;
58071;SDS011;60383;46.626;18.866;2023-04-07T10:20:39;29.00;;;20.75;;
58071;SDS011;60383;46.626;18.866;2023-04-07T10:23:12;28.65;;;20.48;;
58071;SDS011;60383;46.626;18.866;2023-04-07T10:25:43;31.17;;;21.33;;
58071;SDS011;60383;46.626;18.866;2023-04-07T10:28:11;27.63;;;19.50;;
58071;SDS011;60383;46.626;18.866;2023-04-07T10:30:38;29.35;;;21.05;;
58071;SDS011;60383;46.626;18.866;2023-04-07T10:33:05;30.25;;;20.98;;
58071;SDS011;60383;46.626;18.866;2023-04-07T10:38:28;27.00;;;18.95;;
58071;SDS011;60383;46.626;18.866;2023-04-07T10:40:55;32.25;;;20.92;;
58071;SDS011;60383;46.626;18.866;2023-04-07T10:46:16;30.77;;;21.25;;
58071;SDS011;60383;46.626;18.866;2023-04-07T10:48:42;32.38;;;22.38;;
58071;SDS011;60383;46.626;18.866;2023-04-07T10:51:12;27.63;;;20.65;;
58071;SDS011;60383;46.626;18.866;2023-04-07T10:54:12;27.88;;;18.73;;
58071;SDS011;60383;46.626;18.866;2023-04-07T10:59:26;29.85;;;21.10;;
58071;SDS011;60383;46.626;18.866;2023-04-07T11:02:53;30.30;;;20.90;;
58071;SDS011;60383;46.626;18.866;2023-04-07T11:04:47;29.60;;;19.65;;
58071;SDS011;60383;46.626;18.866;2023-04-07T11:07:13;33.40;;;21.65;;
58071;SDS011;60383;46.626;18.866;2023-04-07T11:09:39;27.73;;;20.10;;
58071;SDS011;60383;46.626;18.866;2023-04-07T11:12:05;24.52;;;18.88;;
58071;SDS011;60383;46.626;18.866;2023-04-07T11:14:31;25.60;;;19.60;;
58071;SDS011;60383;46.626;18.866;2023-04-07T11:16:57;25.92;;;19.13;;
58071;SDS011;60383;46.626;18.866;2023-04-07T11:19:25;24.92;;;18.42;;
58071;SDS011;60383;46.626;18.866;2023-04-07T11:22:11;26.00;;;18.92;;
58071;SDS011;60383;46.626;18.866;2023-04-07T11:24:40;25.67;;;18.25;;
58071;SDS011;60383;46.626;18.866;2023-04-07T11:27:09;24.88;;;17.92;;
58071;SDS011;60383;46.626;18.866;2023-04-07T11:29:37;25.77;;;18.45;;
58071;SDS011;60383;46.626;18.866;2023-04-07T11:32:02;25.30;;;18.60;;
58071;SDS011;60383;46.626;18.866;2023-04-07T11:34:29;23.60;;;17.55;;
58071;SDS011;60383;46.626;18.866;2023-04-07T11:36:56;22.95;;;18.00;;
58071;SDS011;60383;46.626;18.866;2023-04-07T11:39:24;25.85;;;16.67;;
58071;SDS011;60383;46.626;18.866;2023-04-07T11:41:57;26.00;;;19.48;;
58071;SDS011;60383;46.626;18.866;2023-04-07T11:44:23;26.95;;;20.10;;
58071;SDS011;60383;46.626;18.866;2023-04-07T11:49:19;25.65;;;19.85;;
58071;SDS011;60383;46.626;18.866;2023-04-07T11:51:44;26.42;;;19.50;;
58071;SDS011;60383;46.626;18.866;2023-04-07T11:54:11;27.58;;;19.55;;
58071;SDS011;60383;46.626;18.866;2023-04-07T11:56:40;25.80;;;19.80;;
58071;SDS011;60383;46.626;18.866;2023-04-07T11:59:43;23.88;;;17.45;;
58071;SDS011;60383;46.626;18.866;2023-04-07T12:02:02;25.48;;;18.25;;
58071;SDS011;60383;46.626;18.866;2023-04-07T12:04:28;24.17;;;18.15;;
58071;SDS011;60383;46.626;18.866;2023-04-07T12:06:54;25.20;;;18.58;;
58071;SDS011;60383;46.626;18.866;2023-04-07T12:09:32;25.25;;;19.15;;
58071;SDS011;60383;46.626;18.866;2023-04-07T12:12:01;25.30;;;18.88;;
58071;SDS011;60383;46.626;18.866;2023-04-07T12:14:27;23.55;;;17.88;;
58071;SDS011;60383;46.626;18.866;2023-04-07T12:16:53;23.60;;;17.77;;
58071;SDS011;60383;46.626;18.866;2023-04-07T12:19:27;22.98;;;17.55;;
58071;SDS011;60383;46.626;18.866;2023-04-07T12:21:54;25.08;;;17.98;;
58071;SDS011;60383;46.626;18.866;2023-04-07T12:24:19;25.42;;;18.33;;
58071;SDS011;60383;46.626;18.866;2023-04-07T12:26:45;24.45;;;18.25;;
58071;SDS011;60383;46.626;18.866;2023-04-07T12:29:12;25.05;;;18.23;;
58071;SDS011;60383;46.626;18.866;2023-04-07T12:31:37;25.25;;;17.60;;
58071;SDS011;60383;46.626;18.866;2023-04-07T12:34:03;26.92;;;18.77;;
58071;SDS011;60383;46.626;18.866;2023-04-07T12:36:28;28.80;;;19.85;;
58071;SDS011;60383;46.626;18.866;2023-04-07T12:38:57;28.10;;;19.55;;
58071;SDS011;60383;46.626;18.866;2023-04-07T12:41:23;31.60;;;20.83;;
58071;SDS011;60383;46.626;18.866;2023-04-07T12:43:49;27.38;;;19.48;;
58071;SDS011;60383;46.626;18.866;2023-04-07T12:46:14;28.00;;;19.33;;
58071;SDS011;60383;46.626;18.866;2023-04-07T12:48:40;27.77;;;19.08;;
58071;SDS011;60383;46.626;18.866;2023-04-07T12:51:06;23.88;;;17.55;;
58071;SDS011;60383;46.626;18.866;2023-04-07T12:53:31;25.73;;;19.15;;
58071;SDS011;60383;46.626;18.866;2023-04-07T12:55:57;27.30;;;19.02;;
58071;SDS011;60383;46.626;18.866;2023-04-07T12:58:23;26.92;;;19.33;;
58071;SDS011;60383;46.626;18.866;2023-04-07T13:00:49;24.48;;;19.10;;
58071;SDS011;60383;46.626;18.866;2023-04-07T13:03:15;24.02;;;17.63;;
58071;SDS011;60383;46.626;18.866;2023-04-07T13:05:40;25.70;;;18.48;;
58071;SDS011;60383;46.626;18.866;2023-04-07T13:08:06;25.35;;;19.05;;
58071;SDS011;60383;46.626;18.866;2023-04-07T13:10:32;27.08;;;18.42;;
58071;SDS011;60383;46.626;18.866;2023-04-07T13:12:58;24.25;;;17.63;;
58071;SDS011;60383;46.626;18.866;2023-04-07T13:15:23;25.13;;;18.70;;
58071;SDS011;60383;46.626;18.866;2023-04-07T13:17:49;25.05;;;18.80;;
58071;SDS011;60383;46.626;18.866;2023-04-07T13:20:14;24.77;;;18.08;;
58071;SDS011;60383;46.626;18.866;2023-04-07T13:22:40;25.80;;;19.08;;
58071;SDS011;60383;46.626;18.866;2023-04-07T13:25:05;26.70;;;18.98;;
58071;SDS011;60383;46.626;18.866;2023-04-07T13:27:31;28.25;;;19.85;;
58071;SDS011;60383;46.626;18.866;2023-04-07T13:29:56;29.52;;;19.88;;
58071;SDS011;60383;46.626;18.866;2023-04-07T13:32:22;29.30;;;20.13;;
58071;SDS011;60383;46.626;18.866;2023-04-07T13:34:47;26.90;;;19.75;;
58071;SDS011;60383;46.626;18.866;2023-04-07T13:37:13;26.42;;;19.83;;
58071;SDS011;60383;46.626;18.866;2023-04-07T13:39:40;26.27;;;18.83;;
58071;SDS011;60383;46.626;18.866;2023-04-07T13:42:06;27.48;;;19.67;;
58071;SDS011;60383;46.626;18.866;2023-04-07T13:44:33;25.63;;;18.90;;
58071;SDS011;60383;46.626;18.866;2023-04-07T13:47:01;27.63;;;19.60;;
58071;SDS011;60383;46.626;18.866;2023-04-07T13:49:27;25.92;;;19.08;;
58071;SDS011;60383;46.626;18.866;2023-04-07T13:51:53;25.90;;;19.38;;
58071;SDS011;60383;46.626;18.866;2023-04-07T13:54:19;25.92;;;18.65;;
58071;SDS011;60383;46.626;18.866;2023-04-07T13:56:44;25.73;;;19.55;;
58071;SDS011;60383;46.626;18.866;2023-04-07T13:59:12;25.17;;;18.75;;
58071;SDS011;60383;46.626;18.866;2023-04-07T14:01:38;24.98;;;18.75;;
58071;SDS011;60383;46.626;18.866;2023-04-07T14:04:04;27.63;;;19.40;;
58071;SDS011;60383;46.626;18.866;2023-04-07T14:06:30;26.63;;;18.95;;
58071;SDS011;60383;46.626;18.866;2023-04-07T14:08:59;29.23;;;19.58;;
58071;SDS011;60383;46.626;18.866;2023-04-07T14:11:24;26.40;;;18.55;;
58071;SDS011;60383;46.626;18.866;2023-04-07T14:13:50;24.17;;;17.95;;
58071;SDS011;60383;46.626;18.866;2023-04-07T14:16:16;26.38;;;18.25;;
58071;SDS011;60383;46.626;18.866;2023-04-07T14:18:42;29.20;;;20.10;;
58071;SDS011;60383;46.626;18.866;2023-04-07T14:21:08;24.55;;;18.17;;
58071;SDS011;60383;46.626;18.866;2023-04-07T14:23:34;24.38;;;18.52;;
58071;SDS011;60383;46.626;18.866;2023-04-07T14:25:59;26.00;;;19.25;;
58071;SDS011;60383;46.626;18.866;2023-04-07T14:28:26;25.45;;;18.80;;
58071;SDS011;60383;46.626;18.866;2023-04-07T14:30:52;25.40;;;18.88;;
58071;SDS011;60383;46.626;18.866;2023-04-07T14:33:18;25.00;;;18.17;;
58071;SDS011;60383;46.626;18.866;2023-04-07T14:35:44;24.80;;;18.30;;